sensor_id;sensor_type;location;lat;lon;timestamp;temperature;humidity
68476;DHT22;55464;48.266;14.188;2023-01-04T00:01:05;4.40;90.10
68476;DHT22;55464;48.266;14.188;2023-01-04T00:03:30;4.40;90.30
68476;DHT22;55464;48.266;14.188;2023-01-04T00:05:57;4.30;90.30
68476;DHT22;55464;48.266;14.188;2023-01-04T00:08:24;4.30;90.30
68476;DHT22;55464;48.266;14.188;2023-01-04T00:10:50;4.30;90.30
68476;DHT22;55464;48.266;14.188;2023-01-04T00:13:15;4.20;89.90
68476;DHT22;55464;48.266;14.188;2023-01-04T00:15:41;4.10;89.90
68476;DHT22;55464;48.266;14.188;2023-01-04T00:18:07;4.20;90.50
68476;DHT22;55464;48.266;14.188;2023-01-04T00:20:32;4.20;90.40
68476;DHT22;55464;48.266;14.188;2023-01-04T00:22:58;4.20;90.40
68476;DHT22;55464;48.266;14.188;2023-01-04T00:25:24;4.20;90.20
68476;DHT22;55464;48.266;14.188;2023-01-04T00:27:50;4.30;90.70
68476;DHT22;55464;48.266;14.188;2023-01-04T00:30:17;4.30;90.70
68476;DHT22;55464;48.266;14.188;2023-01-04T00:32:43;4.30;90.70
68476;DHT22;55464;48.266;14.188;2023-01-04T00:35:09;4.30;91.00
68476;DHT22;55464;48.266;14.188;2023-01-04T00:37:35;4.40;91.10
68476;DHT22;55464;48.266;14.188;2023-01-04T00:40:01;4.60;89.70
68476;DHT22;55464;48.266;14.188;2023-01-04T00:42:26;4.50;89.50
68476;DHT22;55464;48.266;14.188;2023-01-04T00:44:52;4.40;89.70
68476;DHT22;55464;48.266;14.188;2023-01-04T00:47:18;4.30;89.90
68476;DHT22;55464;48.266;14.188;2023-01-04T00:49:43;4.20;89.90
68476;DHT22;55464;48.266;14.188;2023-01-04T00:52:09;4.10;89.30
68476;DHT22;55464;48.266;14.188;2023-01-04T00:54:35;3.90;89.30
68476;DHT22;55464;48.266;14.188;2023-01-04T00:57:00;4.10;89.20
68476;DHT22;55464;48.266;14.188;2023-01-04T00:59:26;4.00;88.50
68476;DHT22;55464;48.266;14.188;2023-01-04T01:01:52;3.80;88.80
68476;DHT22;55464;48.266;14.188;2023-01-04T01:04:21;3.80;89.40
68476;DHT22;55464;48.266;14.188;2023-01-04T01:06:47;3.80;89.50
68476;DHT22;55464;48.266;14.188;2023-01-04T01:09:14;4.00;89.70
68476;DHT22;55464;48.266;14.188;2023-01-04T01:11:40;4.00;89.80
68476;DHT22;55464;48.266;14.188;2023-01-04T01:14:07;4.10;89.80
68476;DHT22;55464;48.266;14.188;2023-01-04T01:16:33;4.20;89.50
68476;DHT22;55464;48.266;14.188;2023-01-04T01:18:59;4.30;89.00
68476;DHT22;55464;48.266;14.188;2023-01-04T01:21:26;4.30;88.90
68476;DHT22;55464;48.266;14.188;2023-01-04T01:23:54;4.40;88.80
68476;DHT22;55464;48.266;14.188;2023-01-04T01:26:22;4.40;88.50
68476;DHT22;55464;48.266;14.188;2023-01-04T01:28:48;4.40;88.40
68476;DHT22;55464;48.266;14.188;2023-01-04T01:31:19;4.50;87.70
68476;DHT22;55464;48.266;14.188;2023-01-04T01:33:46;4.50;87.80
68476;DHT22;55464;48.266;14.188;2023-01-04T01:36:14;4.50;87.60
68476;DHT22;55464;48.266;14.188;2023-01-04T01:38:40;4.50;87.40
68476;DHT22;55464;48.266;14.188;2023-01-04T01:41:07;4.50;87.40
68476;DHT22;55464;48.266;14.188;2023-01-04T01:46:42;4.30;87.10
68476;DHT22;55464;48.266;14.188;2023-01-04T01:49:35;4.10;87.90
68476;DHT22;55464;48.266;14.188;2023-01-04T01:52:05;3.80;88.60
68476;DHT22;55464;48.266;14.188;2023-01-04T01:54:37;3.80;88.70
68476;DHT22;55464;48.266;14.188;2023-01-04T01:57:06;3.70;89.10
68476;DHT22;55464;48.266;14.188;2023-01-04T01:59:37;3.70;89.30
68476;DHT22;55464;48.266;14.188;2023-01-04T02:02:05;3.70;89.20
68476;DHT22;55464;48.266;14.188;2023-01-04T02:04:31;3.70;89.30
68476;DHT22;55464;48.266;14.188;2023-01-04T02:06:57;3.70;89.00
68476;DHT22;55464;48.266;14.188;2023-01-04T02:09:24;3.80;88.90
68476;DHT22;55464;48.266;14.188;2023-01-04T02:11:50;3.90;87.90
68476;DHT22;55464;48.266;14.188;2023-01-04T02:14:17;4.00;88.00
68476;DHT22;55464;48.266;14.188;2023-01-04T02:19:27;4.00;88.60
68476;DHT22;55464;48.266;14.188;2023-01-04T02:43:51;4.10;87.10
68476;DHT22;55464;48.266;14.188;2023-01-04T02:47:03;4.00;87.00
68476;DHT22;55464;48.266;14.188;2023-01-04T02:49:26;4.00;86.90
68476;DHT22;55464;48.266;14.188;2023-01-04T02:52:10;4.00;87.00
68476;DHT22;55464;48.266;14.188;2023-01-04T02:54:37;4.00;87.20
68476;DHT22;55464;48.266;14.188;2023-01-04T03:02:45;4.00;86.90
68476;DHT22;55464;48.266;14.188;2023-01-04T03:05:55;4.10;86.90
68476;DHT22;55464;48.266;14.188;2023-01-04T03:11:44;4.20;86.40
68476;DHT22;55464;48.266;14.188;2023-01-04T03:14:35;4.20;86.60
68476;DHT22;55464;48.266;14.188;2023-01-04T03:17:09;4.20;86.60
68476;DHT22;55464;48.266;14.188;2023-01-04T03:19:37;4.30;86.50
68476;DHT22;55464;48.266;14.188;2023-01-04T03:22:31;4.30;86.30
68476;DHT22;55464;48.266;14.188;2023-01-04T03:25:19;4.30;86.50
68476;DHT22;55464;48.266;14.188;2023-01-04T03:28:13;4.30;86.70
68476;DHT22;55464;48.266;14.188;2023-01-04T03:34:11;4.10;87.90
68476;DHT22;55464;48.266;14.188;2023-01-04T03:45:22;4.00;89.30
68476;DHT22;55464;48.266;14.188;2023-01-04T03:51:25;3.90;89.60
68476;DHT22;55464;48.266;14.188;2023-01-04T03:54:02;3.90;89.70
68476;DHT22;55464;48.266;14.188;2023-01-04T03:56:31;3.90;89.70
68476;DHT22;55464;48.266;14.188;2023-01-04T03:58:57;3.80;89.60
68476;DHT22;55464;48.266;14.188;2023-01-04T04:01:25;3.90;89.60
68476;DHT22;55464;48.266;14.188;2023-01-04T04:03:51;4.00;89.50
68476;DHT22;55464;48.266;14.188;2023-01-04T04:06:36;4.10;89.50
68476;DHT22;55464;48.266;14.188;2023-01-04T04:09:20;4.10;89.90
68476;DHT22;55464;48.266;14.188;2023-01-04T04:11:47;4.10;90.20
68476;DHT22;55464;48.266;14.188;2023-01-04T04:14:13;4.10;90.30
68476;DHT22;55464;48.266;14.188;2023-01-04T04:16:38;4.10;90.80
68476;DHT22;55464;48.266;14.188;2023-01-04T04:19:04;4.20;90.90
68476;DHT22;55464;48.266;14.188;2023-01-04T04:21:30;4.30;90.60
68476;DHT22;55464;48.266;14.188;2023-01-04T04:23:56;4.20;89.50
68476;DHT22;55464;48.266;14.188;2023-01-04T04:26:22;4.00;89.80
68476;DHT22;55464;48.266;14.188;2023-01-04T04:28:49;4.00;90.00
68476;DHT22;55464;48.266;14.188;2023-01-04T04:31:14;4.10;89.30
68476;DHT22;55464;48.266;14.188;2023-01-04T04:33:40;4.20;89.10
68476;DHT22;55464;48.266;14.188;2023-01-04T04:36:07;4.10;89.40
68476;DHT22;55464;48.266;14.188;2023-01-04T04:38:33;4.10;89.40
68476;DHT22;55464;48.266;14.188;2023-01-04T04:41:04;4.10;89.60
68476;DHT22;55464;48.266;14.188;2023-01-04T04:43:48;4.10;89.50
68476;DHT22;55464;48.266;14.188;2023-01-04T04:46:14;4.10;89.60
68476;DHT22;55464;48.266;14.188;2023-01-04T04:48:40;4.10;89.60
68476;DHT22;55464;48.266;14.188;2023-01-04T04:51:05;4.10;89.70
68476;DHT22;55464;48.266;14.188;2023-01-04T04:53:31;4.00;89.50
68476;DHT22;55464;48.266;14.188;2023-01-04T04:55:57;4.00;89.40
68476;DHT22;55464;48.266;14.188;2023-01-04T04:58:23;4.10;88.80
68476;DHT22;55464;48.266;14.188;2023-01-04T05:00:48;4.10;88.60
68476;DHT22;55464;48.266;14.188;2023-01-04T05:03:14;4.10;88.40
68476;DHT22;55464;48.266;14.188;2023-01-04T05:05:40;4.10;88.30
68476;DHT22;55464;48.266;14.188;2023-01-04T05:08:05;4.10;88.20
68476;DHT22;55464;48.266;14.188;2023-01-04T05:10:31;4.10;88.40
68476;DHT22;55464;48.266;14.188;2023-01-04T05:12:57;4.00;88.20
68476;DHT22;55464;48.266;14.188;2023-01-04T05:15:34;4.10;88.20
68476;DHT22;55464;48.266;14.188;2023-01-04T05:18:01;4.10;88.20
68476;DHT22;55464;48.266;14.188;2023-01-04T05:20:26;4.00;87.80
68476;DHT22;55464;48.266;14.188;2023-01-04T05:22:52;4.00;87.80
68476;DHT22;55464;48.266;14.188;2023-01-04T05:25:19;4.00;87.90
68476;DHT22;55464;48.266;14.188;2023-01-04T05:27:44;3.90;88.30
68476;DHT22;55464;48.266;14.188;2023-01-04T05:30:11;3.90;87.90
68476;DHT22;55464;48.266;14.188;2023-01-04T05:32:56;3.90;88.00
68476;DHT22;55464;48.266;14.188;2023-01-04T05:35:22;3.90;87.70
68476;DHT22;55464;48.266;14.188;2023-01-04T05:37:48;3.70;88.40
68476;DHT22;55464;48.266;14.188;2023-01-04T05:40:13;3.70;88.50
68476;DHT22;55464;48.266;14.188;2023-01-04T05:42:39;3.80;88.30
68476;DHT22;55464;48.266;14.188;2023-01-04T05:45:05;3.80;88.30
68476;DHT22;55464;48.266;14.188;2023-01-04T05:47:31;3.90;88.00
68476;DHT22;55464;48.266;14.188;2023-01-04T05:49:57;3.90;87.80
68476;DHT22;55464;48.266;14.188;2023-01-04T05:52:23;4.00;87.60
68476;DHT22;55464;48.266;14.188;2023-01-04T05:54:48;4.00;87.40
68476;DHT22;55464;48.266;14.188;2023-01-04T05:57:14;4.00;87.40
68476;DHT22;55464;48.266;14.188;2023-01-04T05:59:40;4.00;87.80
68476;DHT22;55464;48.266;14.188;2023-01-04T06:02:12;4.00;88.00
68476;DHT22;55464;48.266;14.188;2023-01-04T06:04:39;4.00;87.80
68476;DHT22;55464;48.266;14.188;2023-01-04T06:07:04;4.00;88.00
68476;DHT22;55464;48.266;14.188;2023-01-04T06:09:30;4.00;87.80
68476;DHT22;55464;48.266;14.188;2023-01-04T06:11:56;4.00;87.60
68476;DHT22;55464;48.266;14.188;2023-01-04T06:14:22;4.10;87.60
68476;DHT22;55464;48.266;14.188;2023-01-04T06:16:47;4.00;87.60
68476;DHT22;55464;48.266;14.188;2023-01-04T06:19:13;4.00;87.90
68476;DHT22;55464;48.266;14.188;2023-01-04T06:21:38;4.10;87.90
68476;DHT22;55464;48.266;14.188;2023-01-04T06:24:04;4.00;88.40
68476;DHT22;55464;48.266;14.188;2023-01-04T06:26:30;4.00;88.60
68476;DHT22;55464;48.266;14.188;2023-01-04T06:28:55;4.00;88.90
68476;DHT22;55464;48.266;14.188;2023-01-04T06:31:21;4.00;89.10
68476;DHT22;55464;48.266;14.188;2023-01-04T06:33:47;4.00;89.50
68476;DHT22;55464;48.266;14.188;2023-01-04T06:36:13;4.10;89.30
68476;DHT22;55464;48.266;14.188;2023-01-04T06:38:38;4.10;89.30
68476;DHT22;55464;48.266;14.188;2023-01-04T06:41:04;4.00;89.70
68476;DHT22;55464;48.266;14.188;2023-01-04T06:43:30;4.00;89.90
68476;DHT22;55464;48.266;14.188;2023-01-04T06:45:55;4.10;89.80
68476;DHT22;55464;48.266;14.188;2023-01-04T06:48:21;4.00;90.30
68476;DHT22;55464;48.266;14.188;2023-01-04T06:50:47;4.00;90.40
68476;DHT22;55464;48.266;14.188;2023-01-04T06:53:12;4.10;90.80
68476;DHT22;55464;48.266;14.188;2023-01-04T06:55:38;4.10;90.90
68476;DHT22;55464;48.266;14.188;2023-01-04T06:58:04;4.10;91.10
68476;DHT22;55464;48.266;14.188;2023-01-04T07:00:29;4.00;91.20
68476;DHT22;55464;48.266;14.188;2023-01-04T07:02:55;4.10;91.20
68476;DHT22;55464;48.266;14.188;2023-01-04T07:05:21;4.10;91.20
68476;DHT22;55464;48.266;14.188;2023-01-04T07:07:46;4.10;91.20
68476;DHT22;55464;48.266;14.188;2023-01-04T07:10:12;4.00;91.30
68476;DHT22;55464;48.266;14.188;2023-01-04T07:12:37;4.10;91.40
68476;DHT22;55464;48.266;14.188;2023-01-04T07:15:04;4.10;91.20
68476;DHT22;55464;48.266;14.188;2023-01-04T07:17:30;4.10;91.40
68476;DHT22;55464;48.266;14.188;2023-01-04T07:19:56;4.10;91.10
68476;DHT22;55464;48.266;14.188;2023-01-04T07:22:21;4.10;91.10
68476;DHT22;55464;48.266;14.188;2023-01-04T07:24:48;4.10;91.10
68476;DHT22;55464;48.266;14.188;2023-01-04T07:27:13;4.20;91.20
68476;DHT22;55464;48.266;14.188;2023-01-04T07:29:39;4.10;91.40
68476;DHT22;55464;48.266;14.188;2023-01-04T07:32:09;4.20;91.70
68476;DHT22;55464;48.266;14.188;2023-01-04T07:34:36;4.20;91.70
68476;DHT22;55464;48.266;14.188;2023-01-04T07:37:02;4.20;91.70
68476;DHT22;55464;48.266;14.188;2023-01-04T07:39:28;4.20;91.70
68476;DHT22;55464;48.266;14.188;2023-01-04T07:41:54;4.30;91.60
68476;DHT22;55464;48.266;14.188;2023-01-04T07:44:20;4.20;91.80
68476;DHT22;55464;48.266;14.188;2023-01-04T07:46:50;4.20;91.80
68476;DHT22;55464;48.266;14.188;2023-01-04T07:49:16;4.30;91.90
68476;DHT22;55464;48.266;14.188;2023-01-04T07:51:43;4.30;92.00
68476;DHT22;55464;48.266;14.188;2023-01-04T07:54:10;4.30;92.00
68476;DHT22;55464;48.266;14.188;2023-01-04T07:56:36;4.30;92.20
68476;DHT22;55464;48.266;14.188;2023-01-04T07:59:04;4.30;92.30
68476;DHT22;55464;48.266;14.188;2023-01-04T08:01:31;4.30;92.50
68476;DHT22;55464;48.266;14.188;2023-01-04T08:03:56;4.40;92.60
68476;DHT22;55464;48.266;14.188;2023-01-04T08:06:22;4.30;92.70
68476;DHT22;55464;48.266;14.188;2023-01-04T08:08:48;4.30;92.70
68476;DHT22;55464;48.266;14.188;2023-01-04T08:11:16;4.30;92.70
68476;DHT22;55464;48.266;14.188;2023-01-04T08:13:43;4.40;92.80
68476;DHT22;55464;48.266;14.188;2023-01-04T08:16:29;4.40;93.00
68476;DHT22;55464;48.266;14.188;2023-01-04T08:19:03;4.50;93.00
68476;DHT22;55464;48.266;14.188;2023-01-04T08:21:31;4.40;92.90
68476;DHT22;55464;48.266;14.188;2023-01-04T08:23:57;4.40;92.60
68476;DHT22;55464;48.266;14.188;2023-01-04T08:26:23;4.50;92.40
68476;DHT22;55464;48.266;14.188;2023-01-04T08:28:49;4.50;91.90
68476;DHT22;55464;48.266;14.188;2023-01-04T08:31:17;4.50;91.60
68476;DHT22;55464;48.266;14.188;2023-01-04T08:33:44;4.50;90.90
68476;DHT22;55464;48.266;14.188;2023-01-04T08:36:26;4.50;90.80
68476;DHT22;55464;48.266;14.188;2023-01-04T08:38:54;4.40;90.60
68476;DHT22;55464;48.266;14.188;2023-01-04T08:41:20;4.40;90.60
68476;DHT22;55464;48.266;14.188;2023-01-04T08:43:46;4.40;90.50
68476;DHT22;55464;48.266;14.188;2023-01-04T08:46:13;4.40;90.50
68476;DHT22;55464;48.266;14.188;2023-01-04T08:48:39;4.40;90.80
68476;DHT22;55464;48.266;14.188;2023-01-04T08:51:11;4.40;90.90
68476;DHT22;55464;48.266;14.188;2023-01-04T08:53:37;4.30;91.00
68476;DHT22;55464;48.266;14.188;2023-01-04T08:56:04;4.40;91.20
68476;DHT22;55464;48.266;14.188;2023-01-04T08:58:32;4.40;91.20
68476;DHT22;55464;48.266;14.188;2023-01-04T09:01:06;4.50;91.30
68476;DHT22;55464;48.266;14.188;2023-01-04T09:03:32;4.50;91.30
68476;DHT22;55464;48.266;14.188;2023-01-04T09:06:17;4.60;91.20
68476;DHT22;55464;48.266;14.188;2023-01-04T09:08:43;4.50;91.30
68476;DHT22;55464;48.266;14.188;2023-01-04T09:11:15;4.60;91.40
68476;DHT22;55464;48.266;14.188;2023-01-04T09:13:41;4.50;91.30
68476;DHT22;55464;48.266;14.188;2023-01-04T09:16:10;4.60;91.30
68476;DHT22;55464;48.266;14.188;2023-01-04T09:18:37;4.60;91.20
68476;DHT22;55464;48.266;14.188;2023-01-04T09:21:07;4.60;90.90
68476;DHT22;55464;48.266;14.188;2023-01-04T09:23:34;4.60;91.00
68476;DHT22;55464;48.266;14.188;2023-01-04T09:26:11;4.60;91.20
68476;DHT22;55464;48.266;14.188;2023-01-04T09:28:37;4.60;91.30
68476;DHT22;55464;48.266;14.188;2023-01-04T09:31:07;4.60;91.40
68476;DHT22;55464;48.266;14.188;2023-01-04T09:33:34;4.60;91.40
68476;DHT22;55464;48.266;14.188;2023-01-04T09:36:04;4.60;91.40
68476;DHT22;55464;48.266;14.188;2023-01-04T09:38:31;4.60;91.50
68476;DHT22;55464;48.266;14.188;2023-01-04T09:46:25;4.60;92.10
68476;DHT22;55464;48.266;14.188;2023-01-04T09:51:32;4.70;92.20
68476;DHT22;55464;48.266;14.188;2023-01-04T09:54:05;4.80;92.30
68476;DHT22;55464;48.266;14.188;2023-01-04T09:56:35;4.80;92.50
68476;DHT22;55464;48.266;14.188;2023-01-04T09:59:06;4.80;92.60
68476;DHT22;55464;48.266;14.188;2023-01-04T10:07:13;4.90;92.70
68476;DHT22;55464;48.266;14.188;2023-01-04T10:09:41;4.90;92.60
68476;DHT22;55464;48.266;14.188;2023-01-04T10:18:28;4.90;92.70
68476;DHT22;55464;48.266;14.188;2023-01-04T10:23:44;5.00;92.50
68476;DHT22;55464;48.266;14.188;2023-01-04T10:26:50;5.00;92.70
68476;DHT22;55464;48.266;14.188;2023-01-04T10:31:49;4.90;92.80
68476;DHT22;55464;48.266;14.188;2023-01-04T10:34:38;5.00;92.60
68476;DHT22;55464;48.266;14.188;2023-01-04T10:37:19;5.00;92.50
68476;DHT22;55464;48.266;14.188;2023-01-04T10:39:50;5.00;92.10
68476;DHT22;55464;48.266;14.188;2023-01-04T10:45:21;5.00;92.10
68476;DHT22;55464;48.266;14.188;2023-01-04T10:53:41;5.00;92.40
68476;DHT22;55464;48.266;14.188;2023-01-04T11:01:36;5.10;92.10
68476;DHT22;55464;48.266;14.188;2023-01-04T11:04:27;5.10;92.10
68476;DHT22;55464;48.266;14.188;2023-01-04T11:07:22;5.10;92.10
68476;DHT22;55464;48.266;14.188;2023-01-04T11:09:54;5.10;92.30
68476;DHT22;55464;48.266;14.188;2023-01-04T11:12:22;5.10;92.30
68476;DHT22;55464;48.266;14.188;2023-01-04T11:14:49;5.20;92.10
68476;DHT22;55464;48.266;14.188;2023-01-04T11:17:15;5.10;92.00
68476;DHT22;55464;48.266;14.188;2023-01-04T11:19:42;5.10;91.80
68476;DHT22;55464;48.266;14.188;2023-01-04T11:24:41;5.20;91.70
68476;DHT22;55464;48.266;14.188;2023-01-04T11:27:21;5.20;91.70
68476;DHT22;55464;48.266;14.188;2023-01-04T11:29:57;5.10;91.60
68476;DHT22;55464;48.266;14.188;2023-01-04T11:35:08;5.20;91.70
68476;DHT22;55464;48.266;14.188;2023-01-04T11:37:36;5.20;91.80
68476;DHT22;55464;48.266;14.188;2023-01-04T11:42:48;5.20;91.30
68476;DHT22;55464;48.266;14.188;2023-01-04T11:45:19;5.20;91.70
68476;DHT22;55464;48.266;14.188;2023-01-04T11:47:54;5.30;91.90
68476;DHT22;55464;48.266;14.188;2023-01-04T11:50:40;5.30;92.00
68476;DHT22;55464;48.266;14.188;2023-01-04T11:53:30;5.40;91.80
68476;DHT22;55464;48.266;14.188;2023-01-04T11:56:08;5.40;91.80
68476;DHT22;55464;48.266;14.188;2023-01-04T11:58:35;5.30;91.90
68476;DHT22;55464;48.266;14.188;2023-01-04T12:01:00;5.40;91.70
68476;DHT22;55464;48.266;14.188;2023-01-04T12:03:30;5.40;91.50
68476;DHT22;55464;48.266;14.188;2023-01-04T12:05:59;5.40;91.30
68476;DHT22;55464;48.266;14.188;2023-01-04T12:10:53;5.40;90.70
68476;DHT22;55464;48.266;14.188;2023-01-04T12:13:19;5.30;90.70
68476;DHT22;55464;48.266;14.188;2023-01-04T12:16:01;5.30;90.60
68476;DHT22;55464;48.266;14.188;2023-01-04T12:18:33;5.20;91.00
68476;DHT22;55464;48.266;14.188;2023-01-04T12:21:00;5.10;92.00
68476;DHT22;55464;48.266;14.188;2023-01-04T12:23:26;4.90;92.50
68476;DHT22;55464;48.266;14.188;2023-01-04T12:25:53;4.80;93.00
68476;DHT22;55464;48.266;14.188;2023-01-04T12:28:39;4.70;93.70
68476;DHT22;55464;48.266;14.188;2023-01-04T12:33:47;4.70;93.70
68476;DHT22;55464;48.266;14.188;2023-01-04T12:36:18;4.70;93.70
68476;DHT22;55464;48.266;14.188;2023-01-04T12:50:14;4.80;93.50
68476;DHT22;55464;48.266;14.188;2023-01-04T12:52:52;4.90;93.40
68476;DHT22;55464;48.266;14.188;2023-01-04T12:57:56;4.80;93.60
68476;DHT22;55464;48.266;14.188;2023-01-04T13:08:14;4.90;93.40
68476;DHT22;55464;48.266;14.188;2023-01-04T13:10:47;5.00;93.20
68476;DHT22;55464;48.266;14.188;2023-01-04T13:23:47;5.10;92.70
68476;DHT22;55464;48.266;14.188;2023-01-04T13:29:17;5.10;92.50
68476;DHT22;55464;48.266;14.188;2023-01-04T13:37:03;5.10;92.50
68476;DHT22;55464;48.266;14.188;2023-01-04T13:39:30;5.10;92.50
68476;DHT22;55464;48.266;14.188;2023-01-04T13:41:56;5.10;92.60
68476;DHT22;55464;48.266;14.188;2023-01-04T13:44:50;5.10;92.50
68476;DHT22;55464;48.266;14.188;2023-01-04T13:47:19;5.10;92.50
68476;DHT22;55464;48.266;14.188;2023-01-04T13:49:45;5.10;92.40
68476;DHT22;55464;48.266;14.188;2023-01-04T13:52:23;5.10;92.20
68476;DHT22;55464;48.266;14.188;2023-01-04T13:54:49;5.10;92.50
68476;DHT22;55464;48.266;14.188;2023-01-04T13:57:17;5.10;92.40
68476;DHT22;55464;48.266;14.188;2023-01-04T13:59:48;5.10;92.70
68476;DHT22;55464;48.266;14.188;2023-01-04T14:02:23;5.10;92.60
68476;DHT22;55464;48.266;14.188;2023-01-04T14:04:49;5.20;92.50
68476;DHT22;55464;48.266;14.188;2023-01-04T14:07:23;5.10;92.50
68476;DHT22;55464;48.266;14.188;2023-01-04T14:09:51;5.10;92.60
68476;DHT22;55464;48.266;14.188;2023-01-04T14:12:28;5.10;92.90
68476;DHT22;55464;48.266;14.188;2023-01-04T14:14:55;5.10;93.00
68476;DHT22;55464;48.266;14.188;2023-01-04T14:17:48;5.10;93.00
68476;DHT22;55464;48.266;14.188;2023-01-04T14:22:55;5.10;92.90
68476;DHT22;55464;48.266;14.188;2023-01-04T14:41:21;5.00;93.60
68476;DHT22;55464;48.266;14.188;2023-01-04T14:43:48;4.90;93.80
68476;DHT22;55464;48.266;14.188;2023-01-04T14:46:14;4.80;94.10
68476;DHT22;55464;48.266;14.188;2023-01-04T14:48:40;4.80;94.30
68476;DHT22;55464;48.266;14.188;2023-01-04T14:51:06;4.80;94.30
68476;DHT22;55464;48.266;14.188;2023-01-04T14:53:32;4.80;94.30
68476;DHT22;55464;48.266;14.188;2023-01-04T14:55:58;4.80;94.30
68476;DHT22;55464;48.266;14.188;2023-01-04T14:58:24;4.80;94.10
68476;DHT22;55464;48.266;14.188;2023-01-04T15:00:50;4.80;94.00
68476;DHT22;55464;48.266;14.188;2023-01-04T15:03:15;4.70;93.80
68476;DHT22;55464;48.266;14.188;2023-01-04T15:05:44;4.80;94.10
68476;DHT22;55464;48.266;14.188;2023-01-04T15:08:10;4.80;94.00
68476;DHT22;55464;48.266;14.188;2023-01-04T15:10:37;4.80;94.00
68476;DHT22;55464;48.266;14.188;2023-01-04T15:13:02;4.80;93.80
68476;DHT22;55464;48.266;14.188;2023-01-04T15:15:31;4.80;93.90
68476;DHT22;55464;48.266;14.188;2023-01-04T15:17:58;4.80;93.70
68476;DHT22;55464;48.266;14.188;2023-01-04T15:20:25;4.80;93.90
68476;DHT22;55464;48.266;14.188;2023-01-04T15:22:51;4.80;93.90
68476;DHT22;55464;48.266;14.188;2023-01-04T15:25:16;4.80;93.80
68476;DHT22;55464;48.266;14.188;2023-01-04T15:27:42;4.90;93.80
68476;DHT22;55464;48.266;14.188;2023-01-04T15:30:10;4.90;93.60
68476;DHT22;55464;48.266;14.188;2023-01-04T15:32:36;4.90;93.60
68476;DHT22;55464;48.266;14.188;2023-01-04T15:35:02;5.00;93.50
68476;DHT22;55464;48.266;14.188;2023-01-04T15:37:27;4.90;93.40
68476;DHT22;55464;48.266;14.188;2023-01-04T15:39:53;5.00;93.40
68476;DHT22;55464;48.266;14.188;2023-01-04T15:42:19;5.00;93.50
68476;DHT22;55464;48.266;14.188;2023-01-04T15:45:04;5.00;93.20
68476;DHT22;55464;48.266;14.188;2023-01-04T15:47:30;4.90;93.20
68476;DHT22;55464;48.266;14.188;2023-01-04T15:49:55;4.90;93.30
68476;DHT22;55464;48.266;14.188;2023-01-04T15:52:21;4.90;93.40
68476;DHT22;55464;48.266;14.188;2023-01-04T15:54:47;4.90;93.50
68476;DHT22;55464;48.266;14.188;2023-01-04T15:57:12;4.90;93.40
68476;DHT22;55464;48.266;14.188;2023-01-04T15:59:39;4.90;93.60
68476;DHT22;55464;48.266;14.188;2023-01-04T16:02:05;5.00;93.50
68476;DHT22;55464;48.266;14.188;2023-01-04T16:04:31;5.00;93.60
68476;DHT22;55464;48.266;14.188;2023-01-04T16:06:57;5.00;93.60
68476;DHT22;55464;48.266;14.188;2023-01-04T16:09:23;5.00;93.50
68476;DHT22;55464;48.266;14.188;2023-01-04T16:11:49;5.00;93.40
68476;DHT22;55464;48.266;14.188;2023-01-04T16:14:33;5.00;93.50
68476;DHT22;55464;48.266;14.188;2023-01-04T16:16:59;4.90;93.60
68476;DHT22;55464;48.266;14.188;2023-01-04T16:19:25;5.00;93.60
68476;DHT22;55464;48.266;14.188;2023-01-04T16:21:51;5.00;93.60
68476;DHT22;55464;48.266;14.188;2023-01-04T16:24:16;5.00;93.60
68476;DHT22;55464;48.266;14.188;2023-01-04T16:26:42;5.00;93.50
68476;DHT22;55464;48.266;14.188;2023-01-04T16:29:10;5.00;93.40
68476;DHT22;55464;48.266;14.188;2023-01-04T16:31:37;5.00;93.50
68476;DHT22;55464;48.266;14.188;2023-01-04T16:34:04;5.00;93.50
68476;DHT22;55464;48.266;14.188;2023-01-04T16:36:29;5.00;93.50
68476;DHT22;55464;48.266;14.188;2023-01-04T16:38:55;5.00;93.60
68476;DHT22;55464;48.266;14.188;2023-01-04T16:41:21;5.00;93.60
68476;DHT22;55464;48.266;14.188;2023-01-04T16:43:51;5.00;93.60
68476;DHT22;55464;48.266;14.188;2023-01-04T16:46:27;4.90;93.60
68476;DHT22;55464;48.266;14.188;2023-01-04T16:49:06;5.00;93.70
68476;DHT22;55464;48.266;14.188;2023-01-04T16:51:34;5.00;93.70
68476;DHT22;55464;48.266;14.188;2023-01-04T16:54:02;5.00;93.80
68476;DHT22;55464;48.266;14.188;2023-01-04T16:56:28;5.00;93.80
68476;DHT22;55464;48.266;14.188;2023-01-04T16:58:54;5.00;93.70
68476;DHT22;55464;48.266;14.188;2023-01-04T17:01:25;5.00;93.60
68476;DHT22;55464;48.266;14.188;2023-01-04T17:03:54;5.00;93.80
68476;DHT22;55464;48.266;14.188;2023-01-04T17:06:23;5.00;93.70
68476;DHT22;55464;48.266;14.188;2023-01-04T17:08:50;5.00;93.90
68476;DHT22;55464;48.266;14.188;2023-01-04T17:11:22;5.00;93.80
68476;DHT22;55464;48.266;14.188;2023-01-04T17:13:48;5.00;93.80
68476;DHT22;55464;48.266;14.188;2023-01-04T17:16:14;5.00;93.80
68476;DHT22;55464;48.266;14.188;2023-01-04T17:18:41;5.10;93.80
68476;DHT22;55464;48.266;14.188;2023-01-04T17:21:10;5.10;93.70
68476;DHT22;55464;48.266;14.188;2023-01-04T17:23:39;5.10;93.50
68476;DHT22;55464;48.266;14.188;2023-01-04T17:26:15;5.10;93.40
68476;DHT22;55464;48.266;14.188;2023-01-04T17:28:42;5.20;93.30
68476;DHT22;55464;48.266;14.188;2023-01-04T17:31:14;5.30;92.40
68476;DHT22;55464;48.266;14.188;2023-01-04T17:33:40;5.40;92.40
68476;DHT22;55464;48.266;14.188;2023-01-04T17:36:08;5.40;92.30
68476;DHT22;55464;48.266;14.188;2023-01-04T17:38:34;5.40;91.90
68476;DHT22;55464;48.266;14.188;2023-01-04T17:41:12;5.50;91.20
68476;DHT22;55464;48.266;14.188;2023-01-04T17:43:39;5.60;90.60
68476;DHT22;55464;48.266;14.188;2023-01-04T17:46:07;5.60;90.20
68476;DHT22;55464;48.266;14.188;2023-01-04T17:48:34;5.70;89.70
68476;DHT22;55464;48.266;14.188;2023-01-04T17:51:12;5.70;89.70
68476;DHT22;55464;48.266;14.188;2023-01-04T17:53:38;5.70;89.80
68476;DHT22;55464;48.266;14.188;2023-01-04T17:56:07;5.70;90.00
68476;DHT22;55464;48.266;14.188;2023-01-04T17:58:33;5.70;89.70
68476;DHT22;55464;48.266;14.188;2023-01-04T18:01:05;5.70;89.50
68476;DHT22;55464;48.266;14.188;2023-01-04T18:03:31;5.70;89.40
68476;DHT22;55464;48.266;14.188;2023-01-04T18:05:57;5.70;89.20
68476;DHT22;55464;48.266;14.188;2023-01-04T18:08:22;5.80;89.00
68476;DHT22;55464;48.266;14.188;2023-01-04T18:10:48;5.70;88.90
68476;DHT22;55464;48.266;14.188;2023-01-04T18:13:14;5.80;88.80
68476;DHT22;55464;48.266;14.188;2023-01-04T18:15:40;5.80;88.50
68476;DHT22;55464;48.266;14.188;2023-01-04T18:18:05;5.80;88.50
68476;DHT22;55464;48.266;14.188;2023-01-04T18:20:31;5.80;88.40
68476;DHT22;55464;48.266;14.188;2023-01-04T18:22:57;5.80;88.50
68476;DHT22;55464;48.266;14.188;2023-01-04T18:25:23;5.80;88.60